Terminal Aerodrome Forecast
Issued by NWS

Current Version | Previous Version | Text Only | Print | Product List | Glossary On
Versions: 1 2 3 4 5 6 7 8 9 10 11 12 13
000
FTUS45 KRIW 051124
TAFBPI
TAF
KBPI 051124Z 0512/0612 VRB05KT P6SM SCT080 BKN110
     FM052000 25015G25KT P6SM SCT070 SCT100
     FM052200 25014G22KT P6SM VCTS SCT060CB BKN080
     FM060200 33011KT P6SM VCSH BKN070
     FM060600 34006KT P6SM SCT100=

USA.gov is the U.S. government's official web portal to all federal, state and local government web resources and services.